createdAt,value
2018-11-27T00:00:31.740Z,708.55
2018-11-27T00:01:32.206Z,708.52
2018-11-27T00:02:32.674Z,708.51
2018-11-27T00:03:33.148Z,708.52
2018-11-27T00:04:33.611Z,708.54
2018-11-27T00:05:34.079Z,708.59
2018-11-27T00:06:34.549Z,708.62
2018-11-27T00:07:35.014Z,708.59
2018-11-27T00:08:35.482Z,708.60
2018-11-27T00:09:35.949Z,708.58
2018-11-27T00:10:36.416Z,708.62
2018-11-27T00:11:36.888Z,708.60
2018-11-27T00:12:37.356Z,708.63
2018-11-27T00:13:37.821Z,708.65
2018-11-27T00:14:38.290Z,708.65
2018-11-27T00:15:38.760Z,708.67
2018-11-27T00:16:39.228Z,708.65
2018-11-27T00:17:39.693Z,708.65
2018-11-27T00:18:40.163Z,708.64
2018-11-27T00:19:40.631Z,708.65
2018-11-27T00:20:41.098Z,708.65
2018-11-27T00:21:41.568Z,708.67
2018-11-27T00:22:42.032Z,708.67
2018-11-27T00:23:42.501Z,708.73
2018-11-27T00:24:42.969Z,708.72
2018-11-27T00:25:43.440Z,708.69
2018-11-27T00:26:43.907Z,708.62
2018-11-27T00:27:44.373Z,708.62
2018-11-27T00:28:44.845Z,708.63
2018-11-27T00:29:45.310Z,708.66
2018-11-27T00:30:45.776Z,708.66
2018-11-27T00:31:46.301Z,708.61
2018-11-27T00:32:46.714Z,708.58
2018-11-27T00:33:47.193Z,708.63
2018-11-27T00:34:47.649Z,708.59
2018-11-27T00:35:48.118Z,708.67
2018-11-27T00:36:48.645Z,708.62
2018-11-27T00:37:49.058Z,708.63
2018-11-27T00:38:49.522Z,708.68
2018-11-27T00:39:49.989Z,708.58
2018-11-27T00:40:50.467Z,708.70
2018-11-27T00:41:50.924Z,708.68
2018-11-27T00:42:51.391Z,708.70
2018-11-27T00:43:51.860Z,708.72
2018-11-27T00:44:52.380Z,708.64
2018-11-27T00:45:52.795Z,708.70
2018-11-27T00:46:53.265Z,708.71
2018-11-27T00:47:53.731Z,708.73
2018-11-27T00:48:54.203Z,708.78
2018-11-27T00:49:54.666Z,708.78
2018-11-27T00:50:55.135Z,708.75
2018-11-27T00:51:55.602Z,708.80
2018-11-27T00:52:56.070Z,708.82
2018-11-27T00:53:56.538Z,708.86
2018-11-27T00:54:58.762Z,708.89
2018-11-27T00:55:57.473Z,708.85
2018-11-27T00:56:57.942Z,708.85
2018-11-27T00:57:58.408Z,708.79
2018-11-27T00:58:58.879Z,708.85
2018-11-27T00:59:59.345Z,708.88
2018-11-27T01:00:59.813Z,708.80
2018-11-27T01:02:00.280Z,708.84
2018-11-27T01:03:00.747Z,708.87
2018-11-27T01:04:01.215Z,708.87
2018-11-27T01:05:01.682Z,708.86
2018-11-27T01:06:02.150Z,708.85
2018-11-27T01:07:02.620Z,708.93
2018-11-27T01:08:03.088Z,708.90
2018-11-27T01:09:03.553Z,708.94
2018-11-27T01:10:04.021Z,708.91
2018-11-27T01:11:04.490Z,708.92
2018-11-27T01:12:04.959Z,708.92
2018-11-27T01:13:05.426Z,708.94
2018-11-27T01:14:05.895Z,708.87
2018-11-27T01:15:06.362Z,708.91
2018-11-27T01:16:06.831Z,708.97
2018-11-27T01:17:07.296Z,708.95
2018-11-27T01:18:07.766Z,708.96
2018-11-27T01:19:08.232Z,709.01
2018-11-27T01:20:08.701Z,708.98
2018-11-27T01:21:09.167Z,709.03
2018-11-27T01:22:09.637Z,709.02
2018-11-27T01:23:10.102Z,709.05
2018-11-27T01:24:10.571Z,708.95
2018-11-27T01:25:11.038Z,708.86
2018-11-27T01:26:11.504Z,708.98
2018-11-27T01:27:11.972Z,708.99
2018-11-27T01:28:12.440Z,709.03
2018-11-27T01:29:12.908Z,709.01
2018-11-27T01:30:13.373Z,709.00
2018-11-27T01:31:13.842Z,709.07
2018-11-27T01:32:14.311Z,708.97
2018-11-27T01:33:14.778Z,709.06
2018-11-27T01:34:15.244Z,709.02
2018-11-27T01:35:15.715Z,709.02
2018-11-27T01:36:16.179Z,709.02
2018-11-27T01:37:16.652Z,709.05
2018-11-27T01:38:17.113Z,709.01
2018-11-27T01:39:17.584Z,709.03
2018-11-27T01:40:18.050Z,709.07
2018-11-27T01:41:18.518Z,709.06
2018-11-27T01:42:18.983Z,709.11
2018-11-27T01:43:19.452Z,709.06
2018-11-27T01:44:19.918Z,709.09
2018-11-27T01:45:20.388Z,709.05
2018-11-27T01:46:20.853Z,709.01
2018-11-27T01:47:21.322Z,709.04
2018-11-27T01:48:21.789Z,709.04
2018-11-27T01:49:22.257Z,709.07
2018-11-27T01:50:22.724Z,709.11
2018-11-27T01:51:23.193Z,709.04
2018-11-27T01:52:23.659Z,708.91
2018-11-27T01:53:24.127Z,708.95
2018-11-27T01:54:24.592Z,708.99
2018-11-27T01:55:25.062Z,708.95
2018-11-27T01:56:25.533Z,708.80
2018-11-27T01:57:25.995Z,708.92
2018-11-27T01:58:26.462Z,708.97
2018-11-27T01:59:26.930Z,708.95
2018-11-27T02:00:27.398Z,709.01
2018-11-27T02:01:27.864Z,708.98
2018-11-27T02:02:28.332Z,709.09
2018-11-27T02:03:28.798Z,708.91
2018-11-27T02:04:29.265Z,709.05
2018-11-27T02:05:29.732Z,709.01
2018-11-27T02:06:30.200Z,709.01
2018-11-27T02:07:30.666Z,709.02
2018-11-27T02:08:31.136Z,709.01
2018-11-27T02:09:31.603Z,708.99
2018-11-27T02:10:32.068Z,709.03
2018-11-27T02:11:32.534Z,709.03
2018-11-27T02:12:33.003Z,709.03
2018-11-27T02:13:33.473Z,709.08
2018-11-27T02:14:33.938Z,709.04
2018-11-27T02:15:34.406Z,709.12
2018-11-27T02:16:34.872Z,708.98
2018-11-27T02:17:35.342Z,708.96
2018-11-27T02:18:35.806Z,709.04
2018-11-27T02:19:36.272Z,709.09
2018-11-27T02:20:36.740Z,709.07
2018-11-27T02:21:37.211Z,709.07
2018-11-27T02:22:37.674Z,709.03
2018-11-27T02:23:38.148Z,709.07
2018-11-27T02:24:38.612Z,709.11
2018-11-27T02:25:39.078Z,709.06
2018-11-27T02:26:39.544Z,709.06
2018-11-27T02:27:40.013Z,709.05
2018-11-27T02:28:40.476Z,709.04
2018-11-27T02:29:40.946Z,709.06
2018-11-27T02:30:41.414Z,709.06
2018-11-27T02:31:41.885Z,709.01
2018-11-27T02:32:42.345Z,709.06
2018-11-27T02:33:42.816Z,709.09
2018-11-27T02:34:43.282Z,709.05
2018-11-27T02:35:43.748Z,709.04
2018-11-27T02:36:44.216Z,709.04
2018-11-27T02:37:44.685Z,709.08
2018-11-27T02:38:45.155Z,709.03
2018-11-27T02:39:45.620Z,709.14
2018-11-27T02:40:46.085Z,709.09
2018-11-27T02:41:46.552Z,709.15
2018-11-27T02:42:47.026Z,709.07
2018-11-27T02:43:47.485Z,709.17
2018-11-27T02:44:47.952Z,709.13
2018-11-27T02:45:48.418Z,709.14
2018-11-27T02:46:48.885Z,709.14
2018-11-27T02:47:49.361Z,709.11
2018-11-27T02:48:49.821Z,709.14
2018-11-27T02:49:50.288Z,709.16
2018-11-27T02:50:50.752Z,709.13
2018-11-27T02:51:51.220Z,709.17
2018-11-27T02:52:51.689Z,709.20
2018-11-27T02:53:52.157Z,709.15
2018-11-27T02:54:52.623Z,709.24
2018-11-27T02:55:53.089Z,709.20
2018-11-27T02:56:53.555Z,709.15
2018-11-27T02:57:54.030Z,709.17
2018-11-27T02:58:54.492Z,709.19
2018-11-27T02:59:54.957Z,709.13
2018-11-27T03:00:55.423Z,709.18
2018-11-27T03:01:55.894Z,709.15
2018-11-27T03:02:56.357Z,709.21
2018-11-27T03:03:56.826Z,709.20
2018-11-27T03:04:57.292Z,709.20
2018-11-27T03:05:57.760Z,709.23
2018-11-27T03:06:58.223Z,709.22
2018-11-27T03:07:58.699Z,709.24
2018-11-27T03:08:59.160Z,709.22
2018-11-27T03:09:59.628Z,709.25
2018-11-27T03:11:00.093Z,709.23
2018-11-27T03:12:00.562Z,709.27
2018-11-27T03:13:01.032Z,709.22
2018-11-27T03:14:01.499Z,709.27
2018-11-27T03:15:01.961Z,709.26
2018-11-27T03:16:02.430Z,709.26
2018-11-27T03:17:02.895Z,709.25
2018-11-27T03:18:03.367Z,709.25
2018-11-27T03:19:03.829Z,709.29
2018-11-27T03:20:04.299Z,709.28
2018-11-27T03:21:04.764Z,709.26
2018-11-27T03:22:05.232Z,709.29
2018-11-27T03:23:05.699Z,709.30
2018-11-27T03:24:06.168Z,709.31
2018-11-27T03:25:06.632Z,709.34
2018-11-27T03:26:07.100Z,709.37
2018-11-27T03:27:07.566Z,709.33
2018-11-27T03:28:08.032Z,709.38
2018-11-27T03:29:08.499Z,709.34
2018-11-27T03:30:08.970Z,709.37
2018-11-27T03:31:09.433Z,709.33
2018-11-27T03:32:09.917Z,709.35
2018-11-27T03:33:10.415Z,709.31
2018-11-27T03:34:10.834Z,709.35
2018-11-27T03:35:11.302Z,709.34
2018-11-27T03:36:11.766Z,709.34
2018-11-27T03:37:12.236Z,709.34
2018-11-27T03:38:12.705Z,709.31
2018-11-27T03:39:13.169Z,709.40
2018-11-27T03:40:13.641Z,709.33
2018-11-27T03:41:14.106Z,709.33
2018-11-27T03:42:14.570Z,709.44
2018-11-27T03:43:15.034Z,709.47
2018-11-27T03:44:15.504Z,709.42
2018-11-27T03:45:15.971Z,709.40
2018-11-27T03:46:16.438Z,709.43
2018-11-27T03:47:16.904Z,709.42
2018-11-27T03:48:17.372Z,709.42
2018-11-27T03:49:17.838Z,709.42
2018-11-27T03:50:18.308Z,709.49
2018-11-27T03:51:18.772Z,709.49
2018-11-27T03:52:19.241Z,709.41
2018-11-27T03:53:19.706Z,709.47
2018-11-27T03:54:20.176Z,709.45
2018-11-27T03:55:20.641Z,709.39
2018-11-27T03:56:21.106Z,709.46
2018-11-27T03:57:21.575Z,709.43
2018-11-27T03:58:22.041Z,709.43
2018-11-27T03:59:22.509Z,709.47
2018-11-27T04:00:22.974Z,709.40
2018-11-27T04:01:23.442Z,709.41
2018-11-27T04:02:23.908Z,709.43
2018-11-27T04:03:24.375Z,709.45
2018-11-27T04:04:24.844Z,709.41
2018-11-27T04:05:25.312Z,709.48
2018-11-27T04:06:25.776Z,709.46
2018-11-27T04:07:26.243Z,709.54
2018-11-27T04:08:26.711Z,709.44
2018-11-27T04:09:27.178Z,709.42
2018-11-27T04:10:27.650Z,709.48
2018-11-27T04:11:28.111Z,709.55
2018-11-27T04:12:28.578Z,709.51
2018-11-27T04:13:29.043Z,709.52
2018-11-27T04:14:29.514Z,709.51
2018-11-27T04:15:29.975Z,709.55
2018-11-27T04:16:30.446Z,709.50
2018-11-27T04:17:30.911Z,709.52
2018-11-27T04:18:31.381Z,709.56
2018-11-27T04:19:31.845Z,709.53
2018-11-27T04:20:32.458Z,709.54
2018-11-27T04:21:32.779Z,709.59
2018-11-27T04:22:33.255Z,709.55
2018-11-27T04:23:33.710Z,709.56
2018-11-27T04:24:34.177Z,709.52
2018-11-27T04:25:34.646Z,709.57
2018-11-27T04:26:35.111Z,709.56
2018-11-27T04:27:35.586Z,709.54
2018-11-27T04:28:36.048Z,709.59
2018-11-27T04:29:36.513Z,709.60
2018-11-27T04:30:36.980Z,709.58
2018-11-27T04:31:37.486Z,709.50
2018-11-27T04:32:37.911Z,709.51
2018-11-27T04:33:38.378Z,709.54
2018-11-27T04:34:38.847Z,709.59
2018-11-27T04:35:39.319Z,709.58
2018-11-27T04:36:39.778Z,709.58
2018-11-27T04:37:40.247Z,709.65
2018-11-27T04:38:40.712Z,709.65
2018-11-27T04:39:41.180Z,709.65
2018-11-27T04:40:41.645Z,709.67
2018-11-27T04:41:42.112Z,709.67
2018-11-27T04:42:42.581Z,709.65
2018-11-27T04:43:43.046Z,709.67
2018-11-27T04:44:43.510Z,709.68
2018-11-27T04:45:43.980Z,709.64
2018-11-27T04:46:44.446Z,709.66
2018-11-27T04:47:44.910Z,709.59
2018-11-27T04:48:45.378Z,709.64
2018-11-27T04:49:45.844Z,709.55
2018-11-27T04:50:46.310Z,709.52
2018-11-27T04:51:46.777Z,709.55
2018-11-27T04:52:47.245Z,709.61
2018-11-27T04:53:47.725Z,709.61
2018-11-27T04:54:48.181Z,709.66
2018-11-27T04:55:48.644Z,709.54
2018-11-27T04:56:49.109Z,709.60
2018-11-27T04:57:49.582Z,709.66
2018-11-27T04:58:50.045Z,709.62
2018-11-27T04:59:50.512Z,709.41
2018-11-27T05:00:50.976Z,709.54
2018-11-27T05:01:51.444Z,709.64
2018-11-27T05:02:51.909Z,709.72
2018-11-27T05:03:52.375Z,709.75
2018-11-27T05:04:52.846Z,709.70
2018-11-27T05:05:53.308Z,709.74
2018-11-27T05:06:53.775Z,709.72
2018-11-27T05:07:54.250Z,709.72
2018-11-27T05:08:54.708Z,709.74
2018-11-27T05:09:55.175Z,709.81
2018-11-27T05:10:55.640Z,709.85
2018-11-27T05:11:56.106Z,709.87
2018-11-27T05:12:56.575Z,709.81
2018-11-27T05:13:57.039Z,709.82
2018-11-27T05:14:57.508Z,709.86
2018-11-27T05:15:57.973Z,709.94
2018-11-27T05:16:58.439Z,709.90
2018-11-27T05:17:58.905Z,709.85
2018-11-27T05:18:59.381Z,709.88
2018-11-27T05:19:59.839Z,709.92
2018-11-27T05:21:00.313Z,709.90
2018-11-27T05:22:00.771Z,709.93
2018-11-27T05:23:01.242Z,709.99
2018-11-27T05:24:01.706Z,710.01
2018-11-27T05:25:02.170Z,709.91
2018-11-27T05:26:02.635Z,709.95
2018-11-27T05:27:03.101Z,709.93
2018-11-27T05:28:03.569Z,709.96
2018-11-27T05:29:04.034Z,709.98
2018-11-27T05:30:04.502Z,709.93
2018-11-27T05:31:04.968Z,709.95
2018-11-27T05:32:05.434Z,709.98
2018-11-27T05:33:05.901Z,710.00
2018-11-27T05:34:06.369Z,710.03
2018-11-27T05:35:06.833Z,710.04
2018-11-27T05:36:07.301Z,710.02
2018-11-27T05:37:07.766Z,710.04
2018-11-27T05:38:08.235Z,709.95
2018-11-27T05:39:08.701Z,709.93
2018-11-27T05:40:09.165Z,710.00
2018-11-27T05:41:09.630Z,710.06
2018-11-27T05:42:10.101Z,710.03
2018-11-27T05:43:10.566Z,709.99
2018-11-27T05:44:11.031Z,710.03
2018-11-27T05:45:11.496Z,710.02
2018-11-27T05:46:11.964Z,710.08
2018-11-27T05:47:12.431Z,710.04
2018-11-27T05:48:12.899Z,710.03
2018-11-27T05:49:13.361Z,710.01
2018-11-27T05:50:13.829Z,710.04
2018-11-27T05:51:14.294Z,710.05
2018-11-27T05:52:14.761Z,710.09
2018-11-27T05:53:15.226Z,710.06
2018-11-27T05:54:15.692Z,710.05
2018-11-27T05:55:16.159Z,710.05
2018-11-27T05:56:16.624Z,710.10
2018-11-27T05:57:17.094Z,710.08
2018-11-27T05:58:17.559Z,710.09
2018-11-27T05:59:18.025Z,710.10
2018-11-27T06:00:18.488Z,710.11
2018-11-27T06:01:18.956Z,710.12
2018-11-27T06:02:19.422Z,710.14
2018-11-27T06:03:19.887Z,710.15
2018-11-27T06:04:20.354Z,710.14
2018-11-27T06:05:20.826Z,710.15
2018-11-27T06:06:21.287Z,710.19
2018-11-27T06:07:21.754Z,710.17
2018-11-27T06:08:22.223Z,710.19
2018-11-27T06:09:22.684Z,710.19
2018-11-27T06:10:23.153Z,710.15
2018-11-27T06:11:23.618Z,710.17
2018-11-27T06:12:24.083Z,710.24
2018-11-27T06:13:24.551Z,710.21
2018-11-27T06:14:25.017Z,710.18
2018-11-27T06:15:25.485Z,710.16
2018-11-27T06:16:25.949Z,710.11
2018-11-27T06:17:26.416Z,710.07
2018-11-27T06:18:26.882Z,710.22
2018-11-27T06:19:27.350Z,710.16
2018-11-27T06:20:27.813Z,710.19
2018-11-27T06:21:28.278Z,710.22
2018-11-27T06:22:28.750Z,710.17
2018-11-27T06:23:29.210Z,710.23
2018-11-27T06:24:29.680Z,710.24
2018-11-27T06:25:30.144Z,710.30
2018-11-27T06:26:30.613Z,710.29
2018-11-27T06:27:31.077Z,710.29
2018-11-27T06:28:31.542Z,710.30
2018-11-27T06:29:32.008Z,710.40
2018-11-27T06:30:32.473Z,710.46
2018-11-27T06:31:32.943Z,710.41
2018-11-27T06:32:33.405Z,710.41
2018-11-27T06:33:33.872Z,710.47
2018-11-27T06:34:34.338Z,710.39
2018-11-27T06:35:34.808Z,710.42
2018-11-27T06:36:35.270Z,710.35
2018-11-27T06:37:35.737Z,710.42
2018-11-27T06:38:36.203Z,710.44
2018-11-27T06:39:36.668Z,710.39
2018-11-27T06:40:37.132Z,710.41
2018-11-27T06:41:37.600Z,710.32
2018-11-27T06:42:38.065Z,710.40
2018-11-27T06:43:38.535Z,710.41
2018-11-27T06:44:39.002Z,710.38
2018-11-27T06:45:39.462Z,710.39
2018-11-27T06:46:39.929Z,710.43
2018-11-27T06:47:40.396Z,710.42
2018-11-27T06:48:40.861Z,710.48
2018-11-27T06:49:41.326Z,710.43
2018-11-27T06:50:41.795Z,710.44
2018-11-27T06:51:42.258Z,710.43
2018-11-27T06:52:42.727Z,710.41
2018-11-27T06:53:43.190Z,710.40
2018-11-27T06:54:43.656Z,710.48
2018-11-27T06:55:44.129Z,710.45
2018-11-27T06:56:44.588Z,710.41
2018-11-27T06:57:45.104Z,710.50
2018-11-27T06:58:45.524Z,710.49
2018-11-27T06:59:45.986Z,710.44
2018-11-27T07:00:46.452Z,710.56
2018-11-27T07:01:46.918Z,710.51
2018-11-27T07:02:47.389Z,710.54
2018-11-27T07:03:47.849Z,710.61
2018-11-27T07:04:48.317Z,710.58
2018-11-27T07:05:48.782Z,710.65
2018-11-27T07:06:49.254Z,710.69
2018-11-27T07:07:49.714Z,710.70
2018-11-27T07:08:50.181Z,710.70
2018-11-27T07:09:50.647Z,710.78
2018-11-27T07:10:51.112Z,710.75
2018-11-27T07:11:51.578Z,710.73
2018-11-27T07:12:52.043Z,710.77
2018-11-27T07:13:52.508Z,710.75
2018-11-27T07:14:52.975Z,710.82
2018-11-27T07:15:53.441Z,710.84
2018-11-27T07:16:53.906Z,710.85
2018-11-27T07:17:54.373Z,710.89
2018-11-27T07:18:54.842Z,710.86
2018-11-27T07:19:55.307Z,710.86
2018-11-27T07:20:55.774Z,710.89
2018-11-27T07:21:56.239Z,710.88
2018-11-27T07:22:56.752Z,710.85
2018-11-27T07:23:57.170Z,710.84
2018-11-27T07:24:57.635Z,710.83
2018-11-27T07:25:58.101Z,710.77
2018-11-27T07:26:58.568Z,710.88
2018-11-27T07:27:59.034Z,710.79
2018-11-27T07:28:59.506Z,710.80
2018-11-27T07:29:59.965Z,710.84
2018-11-27T07:31:00.429Z,710.92
2018-11-27T07:32:00.903Z,710.91
2018-11-27T07:33:01.361Z,710.94
2018-11-27T07:34:01.827Z,711.00
2018-11-27T07:35:02.293Z,711.07
2018-11-27T07:36:02.759Z,711.03
2018-11-27T07:37:03.228Z,711.07
2018-11-27T07:38:03.690Z,711.10
2018-11-27T07:39:04.159Z,711.08
2018-11-27T07:40:04.624Z,711.11
2018-11-27T07:41:05.095Z,711.12
2018-11-27T07:42:05.556Z,711.14
2018-11-27T07:43:06.022Z,711.14
2018-11-27T07:44:06.487Z,711.15
2018-11-27T07:45:06.952Z,711.15
2018-11-27T07:46:07.422Z,711.23
2018-11-27T07:47:07.886Z,711.19
2018-11-27T07:48:08.353Z,711.22
2018-11-27T07:49:08.817Z,711.23
2018-11-27T07:50:09.284Z,711.20
2018-11-27T07:51:09.748Z,711.24
2018-11-27T07:52:10.215Z,711.24
2018-11-27T07:53:10.684Z,711.24
2018-11-27T07:54:11.148Z,711.25
2018-11-27T07:55:11.613Z,711.25
2018-11-27T07:56:12.080Z,711.26
2018-11-27T07:57:12.544Z,711.27
2018-11-27T07:58:13.010Z,711.21
2018-11-27T07:59:13.477Z,711.21
2018-11-27T08:00:13.948Z,711.24
2018-11-27T08:01:14.408Z,711.27
2018-11-27T08:02:14.874Z,711.28
2018-11-27T08:03:15.339Z,711.24
2018-11-27T08:04:15.806Z,711.17
2018-11-27T08:05:16.272Z,711.08
2018-11-27T08:06:16.739Z,711.17
2018-11-27T08:07:17.203Z,711.17
2018-11-27T08:08:17.670Z,711.22
2018-11-27T08:09:18.135Z,711.25
2018-11-27T08:10:18.601Z,711.27
2018-11-27T08:11:19.065Z,711.34
2018-11-27T08:12:19.533Z,711.25
2018-11-27T08:13:19.997Z,711.30
2018-11-27T08:14:20.465Z,711.35
2018-11-27T08:15:20.932Z,711.28
2018-11-27T08:16:21.397Z,711.31
2018-11-27T08:17:21.860Z,711.34
2018-11-27T08:18:22.327Z,711.33
2018-11-27T08:19:22.793Z,711.38
2018-11-27T08:20:23.259Z,711.40
2018-11-27T08:21:23.724Z,711.37
2018-11-27T08:22:24.191Z,711.36
2018-11-27T08:23:24.657Z,711.39
2018-11-27T08:24:25.126Z,711.47
2018-11-27T08:25:25.589Z,711.43
2018-11-27T08:26:26.053Z,711.46
2018-11-27T08:27:26.523Z,711.37
2018-11-27T08:28:26.987Z,711.47
2018-11-27T08:29:27.453Z,711.55
2018-11-27T08:30:27.921Z,711.52
2018-11-27T08:31:28.385Z,711.47
2018-11-27T08:32:28.849Z,711.55
2018-11-27T08:33:29.317Z,711.51
2018-11-27T08:34:29.781Z,711.53
2018-11-27T08:35:30.248Z,711.63
2018-11-27T08:36:30.713Z,711.58
2018-11-27T08:37:31.181Z,711.58
2018-11-27T08:38:31.643Z,711.52
2018-11-27T08:39:32.113Z,711.56
2018-11-27T08:40:32.578Z,711.54
2018-11-27T08:41:40.313Z,711.54
2018-11-27T08:42:33.508Z,711.66
2018-11-27T08:43:33.976Z,711.68
2018-11-27T08:44:34.447Z,711.63
2018-11-27T08:45:34.906Z,711.62
2018-11-27T08:46:35.374Z,711.60
2018-11-27T08:47:35.838Z,711.67
2018-11-27T08:48:36.306Z,711.64
2018-11-27T08:49:36.771Z,711.67
2018-11-27T08:50:37.238Z,711.70
2018-11-27T08:51:37.704Z,711.70
2018-11-27T08:52:38.168Z,711.72
2018-11-27T08:53:38.633Z,711.69
2018-11-27T08:54:39.101Z,711.77
2018-11-27T08:55:39.568Z,711.81
2018-11-27T08:56:40.033Z,711.78
2018-11-27T08:57:40.499Z,711.80
2018-11-27T08:58:40.964Z,711.86
2018-11-27T08:59:41.432Z,711.82
2018-11-27T09:00:41.906Z,711.85
2018-11-27T09:01:42.363Z,711.77
2018-11-27T09:02:42.828Z,711.81
2018-11-27T09:03:46.471Z,711.90
2018-11-27T09:04:43.760Z,711.85
2018-11-27T09:05:44.229Z,711.93
2018-11-27T09:06:44.694Z,711.83
2018-11-27T09:07:45.166Z,711.87
2018-11-27T09:08:45.628Z,711.91
2018-11-27T09:09:46.094Z,711.91
2018-11-27T09:10:46.560Z,711.93
2018-11-27T09:11:47.025Z,711.95
2018-11-27T09:12:47.490Z,711.99
2018-11-27T09:13:47.956Z,712.03
2018-11-27T09:14:48.421Z,711.99
2018-11-27T09:15:48.887Z,712.02
2018-11-27T09:16:49.354Z,711.97
2018-11-27T09:17:49.820Z,711.99
2018-11-27T09:18:50.287Z,711.99
2018-11-27T09:19:50.753Z,712.07
2018-11-27T09:20:51.220Z,712.12
2018-11-27T09:21:51.685Z,712.13
2018-11-27T09:22:52.153Z,712.17
2018-11-27T09:23:52.618Z,712.13
2018-11-27T09:24:53.083Z,712.10
2018-11-27T09:25:53.552Z,712.16
2018-11-27T09:26:54.016Z,712.19
2018-11-27T09:27:54.498Z,712.25
2018-11-27T09:28:54.947Z,712.24
2018-11-27T09:29:55.427Z,712.23
2018-11-27T09:30:55.884Z,712.17
2018-11-27T09:31:56.345Z,712.18
2018-11-27T09:32:56.816Z,712.26
2018-11-27T09:33:57.278Z,712.29
2018-11-27T09:34:57.743Z,712.22
2018-11-27T09:35:58.210Z,712.29
2018-11-27T09:36:58.681Z,712.22
2018-11-27T09:37:59.143Z,712.28
2018-11-27T09:38:59.609Z,712.29
2018-11-27T09:40:00.075Z,712.27
2018-11-27T09:41:00.546Z,712.29
2018-11-27T09:42:01.006Z,712.28
2018-11-27T09:43:01.479Z,712.35
2018-11-27T09:44:01.940Z,712.31
2018-11-27T09:45:02.411Z,712.40
2018-11-27T09:46:02.871Z,712.34
2018-11-27T09:47:03.345Z,712.33
2018-11-27T09:49:04.277Z,712.30
2018-11-27T09:50:04.735Z,712.30
2018-11-27T09:51:05.203Z,712.34
2018-11-27T09:52:05.670Z,712.34
2018-11-27T09:53:06.137Z,712.33
2018-11-27T09:54:06.601Z,712.34
2018-11-27T09:55:07.069Z,712.33
2018-11-27T09:56:07.533Z,712.33
2018-11-27T09:57:08.001Z,712.33
2018-11-27T09:58:08.466Z,712.35
2018-11-27T09:59:08.934Z,712.34
2018-11-27T10:00:09.398Z,712.33
2018-11-27T10:01:09.866Z,712.35
2018-11-27T10:02:10.333Z,712.31
2018-11-27T10:03:10.799Z,712.29
2018-11-27T10:04:11.265Z,712.27
2018-11-27T10:05:11.730Z,712.28
2018-11-27T10:06:12.197Z,712.28
2018-11-27T10:07:12.664Z,712.31
2018-11-27T10:08:13.129Z,712.20
2018-11-27T10:09:13.597Z,712.21
2018-11-27T10:10:14.063Z,712.23
2018-11-27T10:11:15.628Z,712.30
2018-11-27T10:12:14.997Z,712.16
2018-11-27T10:13:15.462Z,712.28
2018-11-27T10:14:15.930Z,712.29
2018-11-27T10:15:16.395Z,712.31
2018-11-27T10:16:16.862Z,712.32
2018-11-27T10:17:17.328Z,712.35
2018-11-27T10:18:17.794Z,712.37
2018-11-27T10:19:18.261Z,712.38
2018-11-27T10:20:18.729Z,712.31
2018-11-27T10:21:19.194Z,712.31
2018-11-27T10:22:19.661Z,712.33
2018-11-27T10:23:20.129Z,712.30
2018-11-27T10:24:20.593Z,712.35
2018-11-27T10:25:21.060Z,712.34
2018-11-27T10:26:21.530Z,712.35
2018-11-27T10:27:21.993Z,712.30
2018-11-27T10:28:22.462Z,712.36
2018-11-27T10:29:22.927Z,712.25
2018-11-27T10:30:23.392Z,712.31
2018-11-27T10:31:23.859Z,712.23
2018-11-27T10:32:24.327Z,712.25
2018-11-27T10:33:24.795Z,712.31
2018-11-27T10:34:25.260Z,712.30
2018-11-27T10:35:25.738Z,712.27
2018-11-27T10:36:26.194Z,712.35
2018-11-27T10:37:26.664Z,712.31
2018-11-27T10:38:27.134Z,712.33
2018-11-27T10:39:27.593Z,712.32
2018-11-27T10:40:28.062Z,712.38
2018-11-27T10:41:28.527Z,712.29
2018-11-27T10:42:30.195Z,712.35
2018-11-27T10:43:29.466Z,712.32
2018-11-27T10:44:29.930Z,712.30
2018-11-27T10:45:30.395Z,712.31
2018-11-27T10:46:30.860Z,712.32
2018-11-27T10:47:31.330Z,712.32
2018-11-27T10:48:31.795Z,712.29
2018-11-27T10:49:32.263Z,712.29
2018-11-27T10:50:32.729Z,712.31
2018-11-27T10:51:33.197Z,712.28
2018-11-27T10:52:33.664Z,712.30
2018-11-27T10:53:34.129Z,712.32
2018-11-27T10:54:34.596Z,712.32
2018-11-27T10:55:35.064Z,712.33
2018-11-27T10:56:35.531Z,712.35
2018-11-27T10:57:35.997Z,712.35
2018-11-27T10:58:36.463Z,712.36
2018-11-27T10:59:36.931Z,712.39
2018-11-27T11:00:37.397Z,712.39
2018-11-27T11:01:37.865Z,712.38
2018-11-27T11:02:38.334Z,712.39
2018-11-27T11:03:38.801Z,712.47
2018-11-27T11:04:39.266Z,712.51
2018-11-27T11:05:39.733Z,712.47
2018-11-27T11:06:40.199Z,712.49
2018-11-27T11:07:40.666Z,712.45
2018-11-27T11:08:41.220Z,712.49
2018-11-27T11:09:41.602Z,712.49
2018-11-27T11:10:42.071Z,712.42
2018-11-27T11:11:42.536Z,712.48
2018-11-27T11:12:43.001Z,712.47
2018-11-27T11:13:43.469Z,712.43
2018-11-27T11:14:43.936Z,712.48
2018-11-27T11:15:44.401Z,712.51
2018-11-27T11:16:44.871Z,712.49
2018-11-27T11:17:45.342Z,712.47
2018-11-27T11:18:45.803Z,712.55
2018-11-27T11:19:46.271Z,712.54
2018-11-27T11:20:46.738Z,712.48
2018-11-27T11:21:47.205Z,712.44
2018-11-27T11:22:47.671Z,712.49
2018-11-27T11:23:48.139Z,712.49
2018-11-27T11:24:48.607Z,712.48
2018-11-27T11:25:49.073Z,712.52
2018-11-27T11:26:49.540Z,712.50
2018-11-27T11:27:50.009Z,712.53
2018-11-27T11:28:50.477Z,712.54
2018-11-27T11:29:50.944Z,712.52
2018-11-27T11:30:51.411Z,712.55
2018-11-27T11:31:51.878Z,712.49
2018-11-27T11:32:52.346Z,712.57
2018-11-27T11:33:52.813Z,712.51
2018-11-27T11:34:53.278Z,712.51
2018-11-27T11:35:53.745Z,712.50
2018-11-27T11:36:54.212Z,712.50
2018-11-27T11:37:54.680Z,712.55
2018-11-27T11:38:55.148Z,712.53
2018-11-27T11:39:55.614Z,712.51
2018-11-27T11:40:56.084Z,712.47
2018-11-27T11:41:56.550Z,712.59
2018-11-27T11:42:57.018Z,712.54
2018-11-27T11:43:57.485Z,712.56
2018-11-27T11:44:57.952Z,712.55
2018-11-27T11:45:58.421Z,712.59
2018-11-27T11:46:58.886Z,712.56
2018-11-27T11:47:59.353Z,712.59
2018-11-27T11:49:01.882Z,712.57
2018-11-27T11:50:00.289Z,712.58
2018-11-27T11:51:00.754Z,712.50
2018-11-27T11:52:01.224Z,712.54
2018-11-27T11:53:01.694Z,712.51
2018-11-27T11:54:02.159Z,712.49
2018-11-27T11:55:02.626Z,712.49
2018-11-27T11:56:03.091Z,712.51
2018-11-27T11:57:03.561Z,712.55
2018-11-27T11:58:04.027Z,712.52
2018-11-27T11:59:04.496Z,712.59
2018-11-27T12:00:04.963Z,712.56
2018-11-27T12:01:05.433Z,712.64
2018-11-27T12:02:05.898Z,712.61
2018-11-27T12:03:06.364Z,712.59
2018-11-27T12:04:06.832Z,712.62
2018-11-27T12:05:07.314Z,712.57
2018-11-27T12:06:07.768Z,712.61
2018-11-27T12:07:08.234Z,712.61
2018-11-27T12:08:08.702Z,712.58
2018-11-27T12:09:09.171Z,712.59
2018-11-27T12:10:09.637Z,712.62
2018-11-27T12:11:10.105Z,712.61
2018-11-27T12:12:10.572Z,712.62
2018-11-27T12:13:11.040Z,712.59
2018-11-27T12:14:11.511Z,712.57
2018-11-27T12:15:11.975Z,712.62
2018-11-27T12:16:12.441Z,712.61
2018-11-27T12:17:12.910Z,712.60
2018-11-27T12:18:13.378Z,712.56
2018-11-27T12:19:13.849Z,712.55
2018-11-27T12:20:14.313Z,712.61
2018-11-27T12:21:14.781Z,712.56
2018-11-27T12:22:15.249Z,712.62
2018-11-27T12:23:15.715Z,712.59
2018-11-27T12:24:16.184Z,712.65
2018-11-27T12:25:16.654Z,712.59
2018-11-27T12:26:17.120Z,712.56
2018-11-27T12:27:17.586Z,712.62
2018-11-27T12:28:18.054Z,712.56
2018-11-27T12:29:18.523Z,712.54
2018-11-27T12:30:18.994Z,712.59
2018-11-27T12:31:19.455Z,712.64
2018-11-27T12:32:19.924Z,712.68
2018-11-27T12:33:20.392Z,712.65
2018-11-27T12:34:20.862Z,712.67
2018-11-27T12:35:21.329Z,712.66